sensor_id;sensor_type;location;lat;lon;timestamp;P1;durP1;ratioP1;P2;durP2;ratioP2
32329;SDS011;18807;52.434;13.238;2023-11-21T00:03:54;2.00;;;1.20;;
32329;SDS011;18807;52.434;13.238;2023-11-21T00:11:28;2.83;;;1.60;;
32329;SDS011;18807;52.434;13.238;2023-11-21T00:19:20;2.70;;;1.77;;
32329;SDS011;18807;52.434;13.238;2023-11-21T00:26:55;3.85;;;2.38;;
32329;SDS011;18807;52.434;13.238;2023-11-21T00:34:31;10.60;;;5.55;;
32329;SDS011;18807;52.434;13.238;2023-11-21T00:42:05;15.35;;;8.65;;
32329;SDS011;18807;52.434;13.238;2023-11-21T00:49:41;16.73;;;10.27;;
32329;SDS011;18807;52.434;13.238;2023-11-21T00:57:16;17.95;;;9.02;;
32329;SDS011;18807;52.434;13.238;2023-11-21T01:04:52;28.85;;;10.95;;
32329;SDS011;18807;52.434;13.238;2023-11-21T01:12:27;29.13;;;12.75;;
32329;SDS011;18807;52.434;13.238;2023-11-21T01:27:45;29.73;;;12.75;;
32329;SDS011;18807;52.434;13.238;2023-11-21T01:35:20;34.97;;;14.27;;
32329;SDS011;18807;52.434;13.238;2023-11-21T01:42:55;37.13;;;13.77;;
32329;SDS011;18807;52.434;13.238;2023-11-21T01:50:32;47.08;;;16.88;;
32329;SDS011;18807;52.434;13.238;2023-11-21T01:58:09;40.88;;;14.93;;
32329;SDS011;18807;52.434;13.238;2023-11-21T02:05:45;31.67;;;11.98;;
32329;SDS011;18807;52.434;13.238;2023-11-21T02:20:55;30.52;;;11.65;;
32329;SDS011;18807;52.434;13.238;2023-11-21T02:28:30;31.50;;;12.20;;
32329;SDS011;18807;52.434;13.238;2023-11-21T02:36:06;34.70;;;12.05;;
32329;SDS011;18807;52.434;13.238;2023-11-21T02:43:42;21.77;;;9.57;;
32329;SDS011;18807;52.434;13.238;2023-11-21T02:51:18;22.88;;;8.27;;
32329;SDS011;18807;52.434;13.238;2023-11-21T02:58:55;13.43;;;7.27;;
32329;SDS011;18807;52.434;13.238;2023-11-21T03:06:29;14.52;;;7.35;;
32329;SDS011;18807;52.434;13.238;2023-11-21T03:14:07;12.05;;;5.97;;
32329;SDS011;18807;52.434;13.238;2023-11-21T03:21:58;12.88;;;7.15;;
32329;SDS011;18807;52.434;13.238;2023-11-21T03:29:35;15.60;;;8.65;;
32329;SDS011;18807;52.434;13.238;2023-11-21T03:37:09;17.08;;;9.70;;
32329;SDS011;18807;52.434;13.238;2023-11-21T03:44:45;15.68;;;8.27;;
32329;SDS011;18807;52.434;13.238;2023-11-21T03:52:19;16.73;;;8.73;;
32329;SDS011;18807;52.434;13.238;2023-11-21T03:59:55;16.15;;;7.85;;
32329;SDS011;18807;52.434;13.238;2023-11-21T04:07:29;18.48;;;9.00;;
32329;SDS011;18807;52.434;13.238;2023-11-21T04:15:08;16.30;;;8.60;;
32329;SDS011;18807;52.434;13.238;2023-11-21T04:22:43;17.00;;;8.27;;
32329;SDS011;18807;52.434;13.238;2023-11-21T04:30:19;18.95;;;8.57;;
32329;SDS011;18807;52.434;13.238;2023-11-21T04:37:54;12.93;;;7.80;;
32329;SDS011;18807;52.434;13.238;2023-11-21T04:45:31;12.68;;;7.45;;
32329;SDS011;18807;52.434;13.238;2023-11-21T04:53:05;11.93;;;7.65;;
32329;SDS011;18807;52.434;13.238;2023-11-21T05:00:41;14.30;;;7.50;;
32329;SDS011;18807;52.434;13.238;2023-11-21T05:08:16;13.82;;;7.40;;
32329;SDS011;18807;52.434;13.238;2023-11-21T05:15:53;16.52;;;7.80;;
32329;SDS011;18807;52.434;13.238;2023-11-21T05:23:27;11.52;;;6.95;;
32329;SDS011;18807;52.434;13.238;2023-11-21T05:31:06;11.85;;;6.30;;
32329;SDS011;18807;52.434;13.238;2023-11-21T05:38:48;13.60;;;6.95;;
32329;SDS011;18807;52.434;13.238;2023-11-21T05:46:23;12.87;;;6.33;;
32329;SDS011;18807;52.434;13.238;2023-11-21T05:53:58;13.60;;;7.38;;
32329;SDS011;18807;52.434;13.238;2023-11-21T06:01:33;14.23;;;6.47;;
32329;SDS011;18807;52.434;13.238;2023-11-21T06:09:11;13.80;;;7.38;;
32329;SDS011;18807;52.434;13.238;2023-11-21T06:24:21;12.13;;;6.57;;
32329;SDS011;18807;52.434;13.238;2023-11-21T06:31:55;11.65;;;6.00;;
32329;SDS011;18807;52.434;13.238;2023-11-21T06:47:06;12.50;;;5.75;;
32329;SDS011;18807;52.434;13.238;2023-11-21T06:54:40;10.23;;;5.07;;
32329;SDS011;18807;52.434;13.238;2023-11-21T07:02:16;11.15;;;4.70;;
32329;SDS011;18807;52.434;13.238;2023-11-21T07:09:51;7.50;;;4.60;;
32329;SDS011;18807;52.434;13.238;2023-11-21T07:17:44;7.30;;;4.20;;
32329;SDS011;18807;52.434;13.238;2023-11-21T07:25:19;8.27;;;4.32;;
32329;SDS011;18807;52.434;13.238;2023-11-21T07:32:56;7.75;;;4.60;;
32329;SDS011;18807;52.434;13.238;2023-11-21T07:40:31;9.40;;;3.33;;
32329;SDS011;18807;52.434;13.238;2023-11-21T07:48:07;5.40;;;3.17;;
32329;SDS011;18807;52.434;13.238;2023-11-21T08:04:17;6.55;;;3.30;;
32329;SDS011;18807;52.434;13.238;2023-11-21T15:32:08;22.25;;;12.95;;
32329;SDS011;18807;52.434;13.238;2023-11-21T15:39:42;24.73;;;11.60;;
32329;SDS011;18807;52.434;13.238;2023-11-21T15:47:18;20.92;;;11.65;;
32329;SDS011;18807;52.434;13.238;2023-11-21T15:54:52;18.10;;;10.48;;
32329;SDS011;18807;52.434;13.238;2023-11-21T16:02:31;21.13;;;12.52;;
32329;SDS011;18807;52.434;13.238;2023-11-21T16:10:08;23.25;;;11.50;;
32329;SDS011;18807;52.434;13.238;2023-11-21T16:17:44;20.40;;;10.70;;
32329;SDS011;18807;52.434;13.238;2023-11-21T16:25:21;18.92;;;11.30;;
32329;SDS011;18807;52.434;13.238;2023-11-21T16:32:56;22.55;;;12.45;;
32329;SDS011;18807;52.434;13.238;2023-11-21T16:40:31;24.70;;;12.70;;
32329;SDS011;18807;52.434;13.238;2023-11-21T16:48:07;21.85;;;12.90;;
32329;SDS011;18807;52.434;13.238;2023-11-21T16:55:43;20.67;;;11.35;;
32329;SDS011;18807;52.434;13.238;2023-11-21T17:03:23;21.98;;;11.20;;
32329;SDS011;18807;52.434;13.238;2023-11-21T17:10:58;18.13;;;10.45;;
32329;SDS011;18807;52.434;13.238;2023-11-21T17:18:34;21.65;;;11.73;;
32329;SDS011;18807;52.434;13.238;2023-11-21T17:26:08;18.20;;;10.15;;
32329;SDS011;18807;52.434;13.238;2023-11-21T17:33:49;16.30;;;10.70;;
32329;SDS011;18807;52.434;13.238;2023-11-21T17:41:26;18.50;;;9.70;;
32329;SDS011;18807;52.434;13.238;2023-11-21T17:49:02;19.48;;;10.48;;
32329;SDS011;18807;52.434;13.238;2023-11-21T17:56:36;17.13;;;10.18;;
32329;SDS011;18807;52.434;13.238;2023-11-21T18:04:12;14.07;;;7.97;;
32329;SDS011;18807;52.434;13.238;2023-11-21T18:11:46;18.08;;;9.32;;
32329;SDS011;18807;52.434;13.238;2023-11-21T18:19:22;16.45;;;9.73;;
32329;SDS011;18807;52.434;13.238;2023-11-21T18:26:56;17.02;;;9.73;;
32329;SDS011;18807;52.434;13.238;2023-11-21T18:34:32;15.52;;;8.60;;
32329;SDS011;18807;52.434;13.238;2023-11-21T18:42:06;15.40;;;8.65;;
32329;SDS011;18807;52.434;13.238;2023-11-21T18:57:31;16.52;;;8.85;;
32329;SDS011;18807;52.434;13.238;2023-11-21T19:05:06;13.40;;;7.50;;
32329;SDS011;18807;52.434;13.238;2023-11-21T19:12:43;12.65;;;7.00;;
32329;SDS011;18807;52.434;13.238;2023-11-21T19:20:18;12.82;;;7.13;;
32329;SDS011;18807;52.434;13.238;2023-11-21T19:27:57;15.15;;;8.68;;
32329;SDS011;18807;52.434;13.238;2023-11-21T19:35:34;16.05;;;7.57;;
32329;SDS011;18807;52.434;13.238;2023-11-21T19:43:13;20.08;;;6.93;;
32329;SDS011;18807;52.434;13.238;2023-11-21T19:50:48;15.18;;;7.45;;
32329;SDS011;18807;52.434;13.238;2023-11-21T19:58:24;12.52;;;7.25;;
32329;SDS011;18807;52.434;13.238;2023-11-21T20:05:59;13.20;;;7.32;;
32329;SDS011;18807;52.434;13.238;2023-11-21T20:13:35;11.63;;;6.68;;
32329;SDS011;18807;52.434;13.238;2023-11-21T20:21:10;12.40;;;6.53;;
32329;SDS011;18807;52.434;13.238;2023-11-21T20:28:46;11.38;;;6.47;;
32329;SDS011;18807;52.434;13.238;2023-11-21T20:36:20;12.93;;;7.82;;
32329;SDS011;18807;52.434;13.238;2023-11-21T20:43:58;11.52;;;5.60;;
32329;SDS011;18807;52.434;13.238;2023-11-21T20:51:34;12.38;;;6.18;;
32329;SDS011;18807;52.434;13.238;2023-11-21T20:59:10;15.35;;;7.32;;
32329;SDS011;18807;52.434;13.238;2023-11-21T21:06:45;14.60;;;7.45;;
32329;SDS011;18807;52.434;13.238;2023-11-21T21:14:21;11.07;;;5.70;;
32329;SDS011;18807;52.434;13.238;2023-11-21T21:21:59;11.80;;;5.93;;
32329;SDS011;18807;52.434;13.238;2023-11-21T21:29:36;15.45;;;7.00;;
32329;SDS011;18807;52.434;13.238;2023-11-21T21:37:10;11.40;;;6.25;;
32329;SDS011;18807;52.434;13.238;2023-11-21T21:44:45;13.65;;;6.30;;
32329;SDS011;18807;52.434;13.238;2023-11-21T21:52:19;11.50;;;5.75;;
32329;SDS011;18807;52.434;13.238;2023-11-21T21:59:55;12.18;;;6.40;;
32329;SDS011;18807;52.434;13.238;2023-11-21T22:07:29;12.27;;;6.38;;
32329;SDS011;18807;52.434;13.238;2023-11-21T22:15:05;9.95;;;5.82;;
32329;SDS011;18807;52.434;13.238;2023-11-21T22:22:40;10.77;;;5.68;;
32329;SDS011;18807;52.434;13.238;2023-11-21T22:30:16;9.60;;;4.80;;
32329;SDS011;18807;52.434;13.238;2023-11-21T22:37:50;13.77;;;6.50;;
32329;SDS011;18807;52.434;13.238;2023-11-21T22:45:26;11.15;;;5.68;;
32329;SDS011;18807;52.434;13.238;2023-11-21T22:53:01;7.47;;;4.15;;
32329;SDS011;18807;52.434;13.238;2023-11-21T23:00:37;12.90;;;5.60;;
32329;SDS011;18807;52.434;13.238;2023-11-21T23:08:12;9.05;;;5.30;;
32329;SDS011;18807;52.434;13.238;2023-11-21T23:15:48;8.82;;;4.80;;
32329;SDS011;18807;52.434;13.238;2023-11-21T23:23:25;8.70;;;4.63;;
32329;SDS011;18807;52.434;13.238;2023-11-21T23:31:01;11.07;;;5.50;;
32329;SDS011;18807;52.434;13.238;2023-11-21T23:38:35;11.45;;;5.28;;
32329;SDS011;18807;52.434;13.238;2023-11-21T23:46:11;11.25;;;5.50;;
32329;SDS011;18807;52.434;13.238;2023-11-21T23:53:45;7.90;;;4.90;;
